createdAt,value
2023-04-18T00:01:44.807Z,22.00
2023-04-18T00:04:13.980Z,19.80
2023-04-18T00:06:43.552Z,35.40
2023-04-18T00:09:11.747Z,22.97
2023-04-18T00:11:39.799Z,20.73
2023-04-18T00:14:08.682Z,20.77
2023-04-18T00:16:38.157Z,26.57
2023-04-18T00:19:06.543Z,20.40
2023-04-18T00:21:34.469Z,25.83
2023-04-18T00:24:03.842Z,20.93
2023-04-18T00:26:31.866Z,23.60
2023-04-18T00:28:59.941Z,22.53
2023-04-18T00:31:28.402Z,21.13
2023-04-18T00:33:58.413Z,23.77
2023-04-18T00:36:27.083Z,18.97
2023-04-18T00:38:55.194Z,20.33
2023-04-18T00:41:27.331Z,22.40
2023-04-18T00:43:55.334Z,22.30
2023-04-18T00:46:24.058Z,25.83
2023-04-18T00:48:52.255Z,23.57
2023-04-18T00:51:21.212Z,21.27
2023-04-18T00:53:49.399Z,19.90
2023-04-18T00:56:17.732Z,22.47
2023-04-18T00:58:47.083Z,21.47
2023-04-18T01:01:15.142Z,24.03
2023-04-18T01:03:45.189Z,21.83
2023-04-18T01:06:16.340Z,24.70
2023-04-18T01:08:45.562Z,24.53
2023-04-18T01:11:13.573Z,20.10
2023-04-18T01:13:41.586Z,25.60
2023-04-18T01:16:10.922Z,21.70
2023-04-18T01:18:40.274Z,24.40
2023-04-18T01:21:09.882Z,20.50
2023-04-18T01:23:38.457Z,22.03
2023-04-18T01:26:08.642Z,23.03
2023-04-18T01:28:38.139Z,21.20
2023-04-18T01:31:06.301Z,20.57
2023-04-18T01:33:37.637Z,24.00
2023-04-18T01:36:05.950Z,22.83
2023-04-18T01:38:34.213Z,20.50
2023-04-18T01:41:02.275Z,22.63
2023-04-18T01:43:31.539Z,26.80
2023-04-18T01:46:00.255Z,21.03
2023-04-18T01:48:29.282Z,21.67
2023-04-18T01:50:57.169Z,21.13
2023-04-18T01:53:25.638Z,23.10
2023-04-18T01:55:53.684Z,23.73
2023-04-18T01:58:23.933Z,21.70
2023-04-18T02:00:54.459Z,22.00
2023-04-18T02:03:22.583Z,21.60
2023-04-18T02:05:50.719Z,21.47
2023-04-18T02:08:18.564Z,24.60
2023-04-18T02:10:46.479Z,24.70
2023-04-18T02:13:15.113Z,21.90
2023-04-18T02:15:44.954Z,22.53
2023-04-18T02:18:17.488Z,26.57
2023-04-18T02:20:45.359Z,26.03
2023-04-18T02:23:13.233Z,23.27
2023-04-18T02:25:41.282Z,27.27
2023-04-18T02:28:10.594Z,24.10
2023-04-18T02:30:38.451Z,22.37
2023-04-18T02:33:06.452Z,26.13
2023-04-18T02:35:36.289Z,28.07
2023-04-18T02:38:04.255Z,26.40
2023-04-18T02:40:32.198Z,25.27
2023-04-18T02:43:02.099Z,24.63
2023-04-18T02:45:30.522Z,24.57
2023-04-18T02:48:00.995Z,23.43
2023-04-18T02:50:29.508Z,27.37
2023-04-18T02:53:00.053Z,24.17
2023-04-18T02:55:38.741Z,24.03
2023-04-18T02:58:06.616Z,27.33
2023-04-18T03:00:54.758Z,24.00
2023-04-18T03:03:42.616Z,23.80
2023-04-18T03:06:39.799Z,28.10
2023-04-18T03:09:09.296Z,23.80
2023-04-18T03:11:42.147Z,24.40
2023-04-18T03:14:11.189Z,24.70
2023-04-18T03:16:49.507Z,21.23
2023-04-18T03:19:21.777Z,22.20
2023-04-18T03:21:51.714Z,22.90
2023-04-18T03:24:20.997Z,24.83
2023-04-18T03:26:51.922Z,24.30
2023-04-18T03:29:23.149Z,21.13
2023-04-18T03:31:52.707Z,21.40
2023-04-18T03:34:20.736Z,21.40
2023-04-18T03:36:48.789Z,19.90
2023-04-18T03:39:17.829Z,21.97
2023-04-18T03:41:47.569Z,21.37
2023-04-18T03:44:15.736Z,22.90
2023-04-18T03:46:43.819Z,22.00
2023-04-18T03:49:11.753Z,25.73
2023-04-18T03:51:44.403Z,24.33
2023-04-18T03:54:12.672Z,22.43
2023-04-18T03:56:41.192Z,25.80
2023-04-18T03:59:15.445Z,22.60
2023-04-18T04:01:47.479Z,25.93
2023-04-18T04:04:16.031Z,25.07
2023-04-18T04:06:44.778Z,22.60
2023-04-18T04:09:13.883Z,24.13
2023-04-18T04:11:42.429Z,25.53
2023-04-18T04:14:14.352Z,24.07
2023-04-18T04:16:46.091Z,27.53
2023-04-18T04:19:16.926Z,23.57
2023-04-18T04:21:55.776Z,22.07
2023-04-18T04:24:23.789Z,21.90
2023-04-18T04:26:52.603Z,21.93
2023-04-18T04:29:26.315Z,25.67
2023-04-18T04:31:54.431Z,24.47
2023-04-18T04:34:32.101Z,24.37
2023-04-18T04:37:02.194Z,30.20
2023-04-18T04:39:32.292Z,24.57
2023-04-18T04:42:25.513Z,21.60
2023-04-18T04:45:04.269Z,22.40
2023-04-18T04:47:32.226Z,22.13
2023-04-18T04:50:00.426Z,22.17
2023-04-18T04:52:28.249Z,26.53
2023-04-18T04:54:56.157Z,22.10
2023-04-18T04:57:27.330Z,25.53
2023-04-18T04:59:56.142Z,24.80
2023-04-18T05:02:25.735Z,23.67
2023-04-18T05:04:53.699Z,24.53
2023-04-18T05:07:21.911Z,24.00
2023-04-18T05:09:49.831Z,23.97
2023-04-18T05:12:17.688Z,25.77
2023-04-18T05:14:45.461Z,26.03
2023-04-18T05:17:13.332Z,22.77
2023-04-18T05:19:44.071Z,31.97
2023-04-18T05:22:11.873Z,32.63
2023-04-18T05:24:39.692Z,24.13
2023-04-18T05:27:07.631Z,22.27
2023-04-18T05:29:35.455Z,23.20
2023-04-18T05:32:03.863Z,22.30
2023-04-18T05:34:32.184Z,22.53
2023-04-18T05:37:01.504Z,21.90
2023-04-18T05:39:29.372Z,25.97
2023-04-18T05:41:58.297Z,24.13
2023-04-18T05:44:26.279Z,24.13
2023-04-18T05:46:54.108Z,29.83
2023-04-18T05:49:22.327Z,23.73
2023-04-18T05:51:50.605Z,25.60
2023-04-18T05:54:21.547Z,27.07
2023-04-18T05:56:49.304Z,25.80
2023-04-18T05:59:17.118Z,27.37
2023-04-18T06:01:44.985Z,26.20
2023-04-18T06:04:13.154Z,29.33
2023-04-18T06:06:41.342Z,24.20
2023-04-18T06:09:09.142Z,22.90
2023-04-18T06:11:38.484Z,24.70
2023-04-18T06:14:06.330Z,26.73
2023-04-18T06:16:34.317Z,20.53
2023-04-18T06:19:02.439Z,22.10
2023-04-18T06:21:30.293Z,22.73
2023-04-18T06:23:58.333Z,27.17
2023-04-18T06:26:26.616Z,25.97
2023-04-18T06:28:55.990Z,28.10
2023-04-18T06:31:23.927Z,24.33
2023-04-18T06:33:52.056Z,24.87
2023-04-18T06:36:20.389Z,22.67
2023-04-18T06:38:48.288Z,24.37
2023-04-18T06:41:16.636Z,24.30
2023-04-18T06:44:01.602Z,27.27
2023-04-18T06:46:31.971Z,28.17
2023-04-18T06:48:59.963Z,20.13
2023-04-18T06:51:27.935Z,26.23
2023-04-18T06:53:55.858Z,23.77
2023-04-18T06:56:24.041Z,34.80
2023-04-18T06:58:52.861Z,30.07
2023-04-18T07:01:20.979Z,31.57
2023-04-18T07:03:50.420Z,21.77
2023-04-18T07:06:18.829Z,23.93
2023-04-18T07:08:46.597Z,24.47
2023-04-18T07:11:14.521Z,28.10
2023-04-18T07:13:43.098Z,26.37
2023-04-18T07:16:11.017Z,24.20
2023-04-18T07:18:38.841Z,24.50
2023-04-18T07:21:08.180Z,21.37
2023-04-18T07:23:36.277Z,26.17
2023-04-18T07:26:05.632Z,23.53
2023-04-18T07:28:34.442Z,24.20
2023-04-18T07:31:03.150Z,21.13
2023-04-18T07:33:33.816Z,21.87
2023-04-18T07:36:02.914Z,21.40
2023-04-18T07:38:32.109Z,23.27
2023-04-18T07:41:01.314Z,23.50
2023-04-18T07:43:29.267Z,25.63
2023-04-18T07:45:57.214Z,24.23
2023-04-18T07:48:25.970Z,19.03
2023-04-18T07:50:54.043Z,20.23
2023-04-18T07:53:22.407Z,21.57
2023-04-18T07:55:51.858Z,21.23
2023-04-18T07:58:19.721Z,21.77
2023-04-18T08:00:47.683Z,18.73
2023-04-18T08:03:16.213Z,24.23
2023-04-18T08:05:44.393Z,26.40
2023-04-18T08:08:13.273Z,21.13
2023-04-18T08:10:41.083Z,23.00
2023-04-18T08:13:13.043Z,23.23
2023-04-18T08:15:41.084Z,23.27
2023-04-18T08:18:09.011Z,23.00
2023-04-18T08:20:37.141Z,20.63
2023-04-18T08:23:08.411Z,21.77
2023-04-18T08:25:37.577Z,19.83
2023-04-18T08:28:05.846Z,23.03
2023-04-18T08:30:35.092Z,26.77
2023-04-18T08:33:03.096Z,19.43
2023-04-18T08:35:31.074Z,22.63
2023-04-18T08:37:58.933Z,23.23
2023-04-18T08:40:26.907Z,22.20
2023-04-18T08:42:58.639Z,17.63
2023-04-18T08:45:26.940Z,21.43
2023-04-18T08:47:58.947Z,20.67
2023-04-18T08:50:26.945Z,22.03
2023-04-18T08:52:56.106Z,21.80
2023-04-18T08:55:24.166Z,20.07
2023-04-18T08:57:55.305Z,20.23
2023-04-18T09:00:23.876Z,29.23
2023-04-18T09:02:56.627Z,20.23
2023-04-18T09:05:27.781Z,20.37
2023-04-18T09:07:57.131Z,21.20
2023-04-18T09:10:30.164Z,19.43
2023-04-18T09:12:59.158Z,19.07
2023-04-18T09:15:29.206Z,21.50
2023-04-18T09:17:58.753Z,22.37
2023-04-18T09:20:35.850Z,19.67
2023-04-18T09:23:05.837Z,25.47
2023-04-18T09:25:39.205Z,24.87
2023-04-18T09:28:24.272Z,19.13
2023-04-18T09:30:53.094Z,24.67
2023-04-18T09:33:29.028Z,20.97
2023-04-18T09:36:16.585Z,24.10
2023-04-18T09:38:45.037Z,19.77
2023-04-18T09:41:15.760Z,20.93
2023-04-18T09:43:44.528Z,21.23
2023-04-18T09:46:12.608Z,22.03
2023-04-18T09:48:41.546Z,19.67
2023-04-18T09:51:11.927Z,22.27
2023-04-18T09:53:41.776Z,18.93
2023-04-18T09:56:13.757Z,23.03
2023-04-18T09:58:42.969Z,19.93
2023-04-18T10:01:13.321Z,23.47
2023-04-18T10:03:45.451Z,17.30
2023-04-18T10:06:17.624Z,19.17
2023-04-18T10:08:45.691Z,21.00
2023-04-18T10:11:13.658Z,20.30
2023-04-18T10:13:44.250Z,20.57
2023-04-18T10:16:12.822Z,20.50
2023-04-18T10:18:40.844Z,23.23
2023-04-18T10:21:10.376Z,20.10
2023-04-18T10:23:40.663Z,21.93
2023-04-18T10:26:09.278Z,22.03
2023-04-18T10:28:54.604Z,20.73
2023-04-18T10:31:23.884Z,18.47
2023-04-18T10:34:04.519Z,21.63
2023-04-18T10:37:05.348Z,20.10
2023-04-18T10:39:49.477Z,19.50
2023-04-18T10:42:17.556Z,22.00
2023-04-18T10:45:05.436Z,18.20
2023-04-18T10:47:33.660Z,16.60
2023-04-18T10:50:06.930Z,17.97
2023-04-18T10:52:35.867Z,16.83
2023-04-18T10:55:18.592Z,18.70
2023-04-18T10:57:47.618Z,15.53
2023-04-18T11:00:17.621Z,18.87
2023-04-18T11:02:57.803Z,20.40
2023-04-18T11:05:27.872Z,21.10
2023-04-18T11:07:56.322Z,14.43
2023-04-18T11:10:26.889Z,15.57
2023-04-18T11:12:55.873Z,16.77
2023-04-18T11:15:25.659Z,15.70
2023-04-18T11:17:59.002Z,12.57
2023-04-18T11:20:27.375Z,14.47
2023-04-18T11:22:57.326Z,17.37
2023-04-18T11:25:29.482Z,15.30
2023-04-18T11:28:00.900Z,16.33
2023-04-18T11:30:31.470Z,13.27
2023-04-18T11:32:59.733Z,14.77
2023-04-18T11:35:28.761Z,14.33
2023-04-18T11:37:56.647Z,13.33
2023-04-18T11:40:26.373Z,13.20
2023-04-18T11:42:56.370Z,14.17
2023-04-18T11:45:24.619Z,14.60
2023-04-18T11:47:58.143Z,13.87
2023-04-18T11:50:26.824Z,13.90
2023-04-18T11:52:55.895Z,11.97
2023-04-18T11:55:25.536Z,10.50
2023-04-18T11:57:56.786Z,11.53
2023-04-18T12:00:34.239Z,10.03
2023-04-18T12:03:04.563Z,9.47
2023-04-18T12:05:34.942Z,11.63
2023-04-18T12:08:08.151Z,12.77
2023-04-18T12:10:36.980Z,13.37
2023-04-18T12:13:09.753Z,10.37
2023-04-18T12:15:40.306Z,10.43
2023-04-18T12:18:09.303Z,10.30
2023-04-18T12:20:38.899Z,11.87
2023-04-18T12:23:07.957Z,11.40
2023-04-18T12:25:36.555Z,10.33
2023-04-18T12:28:14.327Z,13.27
2023-04-18T12:30:43.849Z,12.80
2023-04-18T12:33:13.002Z,8.80
2023-04-18T12:35:41.142Z,10.90
2023-04-18T12:38:09.345Z,11.10
2023-04-18T12:40:40.221Z,12.33
2023-04-18T12:43:08.974Z,12.93
2023-04-18T12:45:36.837Z,10.60
2023-04-18T12:48:07.476Z,10.03
2023-04-18T12:50:35.810Z,8.97
2023-04-18T12:53:04.337Z,11.50
2023-04-18T12:55:32.902Z,11.53
2023-04-18T12:58:01.194Z,11.20
2023-04-18T13:00:31.183Z,13.13
2023-04-18T13:03:00.017Z,12.13
2023-04-18T13:05:33.662Z,12.17
2023-04-18T13:08:15.188Z,11.27
2023-04-18T13:10:45.177Z,10.43
2023-04-18T13:13:13.567Z,9.97
2023-04-18T13:15:41.542Z,9.93
2023-04-18T13:18:10.017Z,11.07
2023-04-18T13:20:40.018Z,8.27
2023-04-18T13:23:07.890Z,8.90
2023-04-18T13:25:35.770Z,8.80
2023-04-18T13:28:04.306Z,8.23
2023-04-18T13:30:35.830Z,8.33
2023-04-18T13:33:03.882Z,11.57
2023-04-18T13:35:31.886Z,8.27
2023-04-18T13:38:01.143Z,8.73
2023-04-18T13:40:29.391Z,14.63
2023-04-18T13:42:57.535Z,8.70
2023-04-18T13:45:26.362Z,9.33
2023-04-18T13:47:54.486Z,7.20
2023-04-18T13:50:23.159Z,7.93
2023-04-18T13:52:51.881Z,9.47
2023-04-18T13:55:21.135Z,6.63
2023-04-18T13:57:48.965Z,8.87
2023-04-18T14:00:19.117Z,7.00
2023-04-18T14:02:47.100Z,8.90
2023-04-18T14:05:15.051Z,8.53
2023-04-18T14:07:43.052Z,8.17
2023-04-18T14:10:12.122Z,6.83
2023-04-18T14:12:41.688Z,6.33
2023-04-18T14:15:11.198Z,8.37
2023-04-18T14:17:39.347Z,6.17
2023-04-18T14:20:08.543Z,11.20
2023-04-18T14:22:36.581Z,7.03
2023-04-18T14:25:04.818Z,9.30
2023-04-18T14:27:32.991Z,10.57
2023-04-18T14:30:02.259Z,6.53
2023-04-18T14:32:31.034Z,8.20
2023-04-18T14:34:59.419Z,6.00
2023-04-18T14:37:27.355Z,7.47
2023-04-18T14:39:55.184Z,7.23
2023-04-18T14:42:23.104Z,6.80
2023-04-18T14:44:51.056Z,5.53
2023-04-18T14:47:20.752Z,5.20
2023-04-18T14:49:48.561Z,5.37
2023-04-18T14:52:16.392Z,6.77
2023-04-18T14:54:44.209Z,5.97
2023-04-18T14:57:12.907Z,6.37
2023-04-18T14:59:40.783Z,6.17
2023-04-18T15:02:08.692Z,9.97
2023-04-18T15:04:38.203Z,10.63
2023-04-18T15:07:07.021Z,6.47
2023-04-18T15:09:37.369Z,7.30
2023-04-18T15:12:05.994Z,6.47
2023-04-18T15:14:34.953Z,7.10
2023-04-18T15:17:02.988Z,10.93
2023-04-18T15:19:32.113Z,6.57
2023-04-18T15:22:01.338Z,8.30
2023-04-18T15:24:29.109Z,6.83
2023-04-18T15:26:57.042Z,6.97
2023-04-18T15:29:24.929Z,8.43
2023-04-18T15:31:54.426Z,8.20
2023-04-18T15:34:23.134Z,7.63
2023-04-18T15:36:51.378Z,7.03
2023-04-18T15:39:23.431Z,7.17
2023-04-18T15:41:53.895Z,5.50
2023-04-18T15:44:21.947Z,6.57
2023-04-18T15:46:49.892Z,8.07
2023-04-18T15:49:17.900Z,8.83
2023-04-18T15:51:45.688Z,6.60
2023-04-18T15:54:13.789Z,6.30
2023-04-18T15:56:44.703Z,5.67
2023-04-18T15:59:13.156Z,6.93
2023-04-18T16:01:42.042Z,6.57
2023-04-18T16:04:11.717Z,6.30
2023-04-18T16:06:40.317Z,6.87
2023-04-18T16:09:08.172Z,6.03
2023-04-18T16:11:36.016Z,6.30
2023-04-18T16:14:05.325Z,5.63
2023-04-18T16:16:34.338Z,9.43
2023-04-18T16:19:04.128Z,6.47
2023-04-18T16:21:33.285Z,5.60
2023-04-18T16:24:01.391Z,5.53
2023-04-18T16:26:29.675Z,7.80
2023-04-18T16:28:58.038Z,6.23
2023-04-18T16:31:27.750Z,6.87
2023-04-18T16:33:55.998Z,5.67
2023-04-18T16:36:23.988Z,6.07
2023-04-18T16:38:51.788Z,6.23
2023-04-18T16:41:19.839Z,6.10
2023-04-18T16:43:48.074Z,5.10
2023-04-18T16:46:16.614Z,6.07
2023-04-18T16:48:45.909Z,6.17
2023-04-18T16:51:14.216Z,6.43
2023-04-18T16:53:43.040Z,5.23
2023-04-18T16:56:11.685Z,6.20
2023-04-18T16:58:39.520Z,5.93
2023-04-18T17:01:08.280Z,6.03
2023-04-18T17:03:36.694Z,7.03
2023-04-18T17:06:06.887Z,7.53
2023-04-18T17:08:36.017Z,6.10
2023-04-18T17:11:03.984Z,9.57
2023-04-18T17:13:32.421Z,7.03
2023-04-18T17:16:00.369Z,7.13
2023-04-18T17:18:29.349Z,8.57
2023-04-18T17:20:57.333Z,9.10
2023-04-18T17:23:26.524Z,9.97
2023-04-18T17:25:54.655Z,7.07
2023-04-18T17:28:23.658Z,6.60
2023-04-18T17:30:51.989Z,7.23
2023-04-18T17:33:21.274Z,6.83
2023-04-18T17:35:50.481Z,8.00
2023-04-18T17:38:19.060Z,8.83
2023-04-18T17:40:48.288Z,8.27
2023-04-18T17:43:16.398Z,9.17
2023-04-18T17:45:44.296Z,8.90
2023-04-18T17:48:12.126Z,10.03
2023-04-18T17:50:40.422Z,11.23
2023-04-18T17:53:08.325Z,8.17
2023-04-18T17:55:36.111Z,9.90
2023-04-18T17:58:06.007Z,8.93
2023-04-18T18:00:33.775Z,9.13
2023-04-18T18:03:02.449Z,12.50
2023-04-18T18:05:31.284Z,9.87
2023-04-18T18:08:01.064Z,11.43
2023-04-18T18:10:29.259Z,7.80
2023-04-18T18:12:57.111Z,11.80
2023-04-18T18:15:26.343Z,9.03
2023-04-18T18:17:54.994Z,9.60
2023-04-18T18:20:23.048Z,11.63
2023-04-18T18:22:51.399Z,11.53
2023-04-18T18:25:20.871Z,11.17
2023-04-18T18:27:49.457Z,17.27
2023-04-18T18:30:17.382Z,14.13
2023-04-18T18:32:46.562Z,11.30
2023-04-18T18:35:14.479Z,9.10
2023-04-18T18:37:42.311Z,14.27
2023-04-18T18:40:11.023Z,8.37
2023-04-18T18:42:38.998Z,10.17
2023-04-18T18:45:08.069Z,8.63
2023-04-18T18:47:38.192Z,7.17
2023-04-18T18:50:09.992Z,9.23
2023-04-18T18:52:40.580Z,8.30
2023-04-18T18:55:10.078Z,9.73
2023-04-18T18:57:38.187Z,8.67
2023-04-18T19:00:09.332Z,9.83
2023-04-18T19:02:37.314Z,10.80
2023-04-18T19:05:09.516Z,11.87
2023-04-18T19:07:37.357Z,11.27
2023-04-18T19:10:06.237Z,10.20
2023-04-18T19:12:34.548Z,10.83
2023-04-18T19:15:02.505Z,11.07
2023-04-18T19:17:30.999Z,10.67
2023-04-18T19:20:01.590Z,10.67
2023-04-18T19:22:31.542Z,10.73
2023-04-18T19:25:00.728Z,10.57
2023-04-18T19:27:28.572Z,11.30
2023-04-18T19:29:56.385Z,9.90
2023-04-18T19:32:24.350Z,11.57
2023-04-18T19:34:52.730Z,11.60
2023-04-18T19:37:20.518Z,12.00
2023-04-18T19:39:49.747Z,11.17
2023-04-18T19:42:17.760Z,12.77
2023-04-18T19:44:46.305Z,12.37
2023-04-18T19:47:14.292Z,12.57
2023-04-18T19:49:44.382Z,12.97
2023-04-18T19:52:12.738Z,12.70
2023-04-18T19:54:40.546Z,12.17
2023-04-18T19:57:09.828Z,14.03
2023-04-18T19:59:37.876Z,13.27
2023-04-18T20:02:06.543Z,10.50
2023-04-18T20:04:36.403Z,11.97
2023-04-18T20:07:04.433Z,13.20
2023-04-18T20:09:32.514Z,13.77
2023-04-18T20:12:01.878Z,10.07
2023-04-18T20:14:31.135Z,13.63
2023-04-18T20:16:59.850Z,12.43
2023-04-18T20:19:29.654Z,11.03
2023-04-18T20:21:57.666Z,10.97
2023-04-18T20:24:28.075Z,12.10
2023-04-18T20:26:57.125Z,12.93
2023-04-18T20:29:25.003Z,12.93
2023-04-18T20:31:54.286Z,15.07
2023-04-18T20:34:22.219Z,13.17
2023-04-18T20:36:52.396Z,12.13
2023-04-18T20:39:20.334Z,14.80
2023-04-18T20:41:51.381Z,11.57
2023-04-18T20:44:20.928Z,13.07
2023-04-18T20:46:48.885Z,10.77
2023-04-18T20:49:18.162Z,13.80
2023-04-18T20:51:46.048Z,13.30
2023-04-18T20:54:14.648Z,14.40
2023-04-18T20:56:42.696Z,12.37
2023-04-18T20:59:10.628Z,12.27
2023-04-18T21:01:38.431Z,15.00
2023-04-18T21:04:06.581Z,17.00
2023-04-18T21:06:36.549Z,13.07
2023-04-18T21:09:04.732Z,12.67
2023-04-18T21:11:32.574Z,11.70
2023-04-18T21:14:00.489Z,12.77
2023-04-18T21:16:29.296Z,13.57
2023-04-18T21:18:57.465Z,13.87
2023-04-18T21:21:27.526Z,11.93
2023-04-18T21:23:58.987Z,12.27
2023-04-18T21:26:28.290Z,13.40
2023-04-18T21:28:58.168Z,14.03
2023-04-18T21:31:27.073Z,11.70
2023-04-18T21:33:55.666Z,13.03
2023-04-18T21:36:26.505Z,11.80
2023-04-18T21:38:55.142Z,12.67
2023-04-18T21:41:25.001Z,13.50
2023-04-18T21:43:53.360Z,13.73
2023-04-18T21:46:21.488Z,12.23
2023-04-18T21:48:49.797Z,12.50
2023-04-18T21:51:18.408Z,13.10
2023-04-18T21:53:46.320Z,11.37
2023-04-18T21:56:16.397Z,12.77
2023-04-18T21:58:45.678Z,12.00
2023-04-18T22:01:13.780Z,11.27
2023-04-18T22:03:41.953Z,12.47
2023-04-18T22:06:10.429Z,12.50
2023-04-18T22:08:38.398Z,10.77
2023-04-18T22:11:06.544Z,10.43
2023-04-18T22:13:34.561Z,11.10
2023-04-18T22:16:04.414Z,11.70
2023-04-18T22:18:33.810Z,10.20
2023-04-18T22:21:03.328Z,10.53
2023-04-18T22:23:31.790Z,11.57
2023-04-18T22:26:01.478Z,15.97
2023-04-18T22:28:29.759Z,11.77
2023-04-18T22:30:57.825Z,13.83
2023-04-18T22:33:27.293Z,12.20
2023-04-18T22:35:55.670Z,11.37
2023-04-18T22:38:23.854Z,11.30
2023-04-18T22:40:51.900Z,11.30
2023-04-18T22:43:22.713Z,14.70
2023-04-18T22:45:51.193Z,14.73
2023-04-18T22:48:20.458Z,11.60
2023-04-18T22:50:50.088Z,12.97
2023-04-18T22:53:18.512Z,12.93
2023-04-18T22:55:46.900Z,12.10
2023-04-18T22:58:31.631Z,13.90
2023-04-18T23:01:19.087Z,12.97
2023-04-18T23:03:47.664Z,11.77
2023-04-18T23:06:17.533Z,11.70
2023-04-18T23:08:45.605Z,15.00
2023-04-18T23:11:13.687Z,14.00
2023-04-18T23:13:41.686Z,12.93
2023-04-18T23:16:09.736Z,13.87
2023-04-18T23:18:37.922Z,12.90
2023-04-18T23:21:06.044Z,12.87
2023-04-18T23:23:35.363Z,12.23
2023-04-18T23:26:03.360Z,13.00
2023-04-18T23:28:31.348Z,11.20
2023-04-18T23:30:59.237Z,12.87
2023-04-18T23:33:27.179Z,11.33
2023-04-18T23:35:55.133Z,11.80
2023-04-18T23:38:22.987Z,12.00
2023-04-18T23:40:52.340Z,13.83
2023-04-18T23:43:20.915Z,11.60
2023-04-18T23:45:48.845Z,12.23
2023-04-18T23:48:16.719Z,12.47
2023-04-18T23:50:46.623Z,14.07
2023-04-18T23:53:14.795Z,10.47
2023-04-18T23:55:42.752Z,13.90
2023-04-18T23:58:12.002Z,12.50
